Time;durP1;ratioP1;P1;durP2;ratioP2;P2;SDS_P1;SDS_P2;PMS_P1;PMS_P2;Temp;Humidity;BMP_temperature;BMP_pressure;BME280_temperature;BME280_humidity;BME280_pressure;Samples;Min_cycle;Max_cycle;Signal;HPM_P1;HPM_P2
2022/03/17 00:01:10;;;;;;;3.63;1.53;;;10.10;99.90;;;;;;5023704;28;20190;-85
2022/03/17 00:03:35;;;;;;;0.90;0.90;;;10.10;99.90;;;;;;5026543;28;20245;-85
2022/03/17 00:06:01;;;;;;;0.87;0.83;;;10.00;99.90;;;;;;5023616;28;20815;-85
2022/03/17 00:08:26;;;;;;;3.90;1.80;;;10.00;99.90;;;;;;5025646;28;20183;-85
2022/03/17 00:10:52;;;;;;;2.60;1.10;;;10.10;99.90;;;;;;5026164;28;20194;-85
2022/03/17 00:13:19;;;;;;;1.20;1.07;;;10.10;99.90;;;;;;5023371;28;20210;-85
2022/03/17 00:15:44;;;;;;;0.80;0.80;;;10.10;99.90;;;;;;5026487;28;20577;-84
2022/03/17 00:18:10;;;;;;;1.43;0.97;;;10.10;99.90;;;;;;5027819;28;20182;-85
2022/03/17 00:20:36;;;;;;;1.97;1.73;;;10.10;99.90;;;;;;5026990;28;20195;-84
2022/03/17 00:23:02;;;;;;;1.50;1.40;;;10.10;99.90;;;;;;5026536;28;20686;-85
2022/03/17 00:25:29;;;;;;;2.63;1.43;;;10.10;99.90;;;;;;5024322;28;20263;-85
2022/03/17 00:27:56;;;;;;;1.97;1.17;;;10.10;99.90;;;;;;5025660;28;20202;-85
2022/03/17 00:30:21;;;;;;;2.80;1.90;;;10.10;99.90;;;;;;5021308;28;20218;-85
2022/03/17 00:32:47;;;;;;;2.90;2.60;;;10.10;99.90;;;;;;5025073;28;20708;-85
2022/03/17 00:37:56;;;;;;;2.17;1.73;;;10.10;99.90;;;;;;5025722;28;20217;-85
2022/03/17 00:40:23;;;;;;;2.03;1.47;;;10.00;99.90;;;;;;5020607;28;20217;-85
2022/03/17 00:42:49;;;;;;;2.50;1.83;;;10.10;99.90;;;;;;5022334;28;20210;-84
2022/03/17 00:45:15;;;;;;;2.23;2.03;;;10.00;99.90;;;;;;5021989;28;20204;-85
2022/03/17 00:47:41;;;;;;;2.93;2.00;;;10.10;99.90;;;;;;5025019;28;20190;-85
2022/03/17 00:50:08;;;;;;;0.90;0.80;;;10.10;99.90;;;;;;5021166;28;20703;-83
2022/03/17 00:52:34;;;;;;;2.77;2.57;;;10.00;99.90;;;;;;5025432;28;20217;-85
2022/03/17 00:54:59;;;;;;;2.10;1.90;;;9.90;99.90;;;;;;5023931;28;20198;-85
2022/03/17 00:57:25;;;;;;;1.90;1.33;;;10.00;99.90;;;;;;5023012;28;20589;-85
2022/03/17 00:59:50;;;;;;;1.77;1.67;;;10.00;99.90;;;;;;5025992;28;20550;-85
2022/03/17 01:02:16;;;;;;;1.33;1.23;;;9.90;99.90;;;;;;5025154;28;20649;-85
2022/03/17 01:04:42;;;;;;;3.33;1.47;;;10.00;99.90;;;;;;5024519;28;20190;-85
2022/03/17 01:07:14;;;;;;;2.93;2.10;;;10.00;99.90;;;;;;5053775;28;20610;-83
2022/03/17 01:09:40;;;;;;;3.67;2.30;;;10.00;99.90;;;;;;5054327;28;20625;-83
2022/03/17 01:12:05;;;;;;;1.30;1.07;;;9.90;99.90;;;;;;5039488;28;20226;-83
2022/03/17 01:14:31;;;;;;;4.60;3.17;;;10.00;99.90;;;;;;5037964;28;20182;-83
2022/03/17 01:16:57;;;;;;;2.30;1.73;;;9.90;99.90;;;;;;5039376;28;20364;-83
2022/03/17 01:19:22;;;;;;;3.43;1.80;;;9.90;99.90;;;;;;5040413;28;20661;-83
2022/03/17 01:21:49;;;;;;;1.57;1.47;;;10.00;99.90;;;;;;5039513;28;20251;-83
2022/03/17 01:24:17;;;;;;;1.57;0.87;;;10.10;99.90;;;;;;5039995;28;20192;-83
2022/03/17 01:26:42;;;;;;;5.90;2.27;;;10.00;99.90;;;;;;5039293;28;20204;-83
2022/03/17 01:29:08;;;;;;;2.73;2.43;;;10.00;99.90;;;;;;5039959;28;20198;-82
2022/03/17 01:31:35;;;;;;;2.20;2.07;;;10.00;99.90;;;;;;5040517;28;20202;-83
2022/03/17 01:34:00;;;;;;;2.63;1.73;;;9.90;99.90;;;;;;5038258;28;20205;-83
2022/03/17 01:36:27;;;;;;;6.50;2.07;;;9.90;99.90;;;;;;5039049;28;21055;-83
2022/03/17 01:38:54;;;;;;;2.13;1.93;;;9.80;99.90;;;;;;5038386;28;20562;-82
2022/03/17 01:41:20;;;;;;;1.37;1.27;;;9.90;99.90;;;;;;5040707;28;20217;-83
2022/03/17 01:43:45;;;;;;;1.47;1.37;;;9.80;99.90;;;;;;5040739;28;21396;-83
2022/03/17 01:46:14;;;;;;;3.60;2.43;;;9.90;99.90;;;;;;5040271;28;20232;-83
2022/03/17 01:48:40;;;;;;;2.00;1.10;;;9.90;99.90;;;;;;5041834;28;20232;-83
2022/03/17 01:51:05;;;;;;;2.60;1.33;;;9.90;99.90;;;;;;5040792;28;20198;-83
2022/03/17 01:53:32;;;;;;;4.30;2.33;;;9.90;99.90;;;;;;5039462;28;20232;-83
2022/03/17 01:55:59;;;;;;;2.87;2.67;;;9.90;99.90;;;;;;5036777;28;20224;-84
2022/03/17 01:58:25;;;;;;;1.77;1.67;;;9.80;99.90;;;;;;5039333;28;20190;-83
2022/03/17 02:00:51;;;;;;;2.33;2.13;;;9.80;99.90;;;;;;5038848;28;20188;-83
2022/03/17 02:03:19;;;;;;;4.00;2.00;;;9.70;99.90;;;;;;5038099;28;20710;-83
2022/03/17 02:05:45;;;;;;;2.97;2.13;;;9.70;99.90;;;;;;5036760;28;20224;-83
2022/03/17 02:08:15;;;;;;;2.53;1.57;;;9.70;99.90;;;;;;5038205;28;20217;-83
2022/03/17 02:13:25;;;;;;;1.87;1.77;;;9.60;99.90;;;;;;5040358;28;20209;-83
2022/03/17 02:15:54;;;;;;;2.50;1.97;;;9.60;99.90;;;;;;5037604;28;21189;-84
2022/03/17 02:18:21;;;;;;;3.13;2.00;;;9.60;99.90;;;;;;5026024;28;20340;-83
2022/03/17 02:20:47;;;;;;;2.00;1.83;;;9.60;99.90;;;;;;5024235;28;20686;-84
2022/03/17 02:25:58;;;;;;;2.47;2.03;;;9.60;99.90;;;;;;5026716;28;20211;-83
2022/03/17 02:28:29;;;;;;;3.30;1.97;;;9.60;99.90;;;;;;5024441;28;20242;-83
2022/03/17 02:30:55;;;;;;;1.67;1.50;;;9.70;99.90;;;;;;5020153;28;20184;-83
2022/03/17 02:33:21;;;;;;;3.07;1.43;;;9.70;99.90;;;;;;5026794;28;20206;-83
2022/03/17 02:35:49;;;;;;;1.60;1.50;;;9.80;99.90;;;;;;5023382;28;21263;-83
2022/03/17 02:38:18;;;;;;;6.27;1.60;;;9.80;99.90;;;;;;5023322;28;20274;-83
2022/03/17 02:40:46;;;;;;;1.87;1.77;;;9.80;99.90;;;;;;5025180;28;20190;-83
2022/03/17 02:43:14;;;;;;;2.37;2.10;;;9.80;99.90;;;;;;5024860;28;20210;-83
2022/03/17 02:45:41;;;;;;;3.13;1.47;;;9.60;99.90;;;;;;5024133;28;21011;-83
2022/03/17 02:48:07;;;;;;;1.53;1.43;;;9.50;99.90;;;;;;5025047;28;20208;-84
2022/03/17 02:50:34;;;;;;;1.43;1.33;;;9.50;99.90;;;;;;5025923;28;20530;-83
2022/03/17 02:53:10;;;;;;;1.37;1.27;;;9.50;99.90;;;;;;5025368;28;20198;-84
2022/03/17 02:55:40;;;;;;;4.13;3.10;;;9.50;99.90;;;;;;5023673;28;20198;-83
2022/03/17 02:58:07;;;;;;;2.03;1.83;;;9.50;99.90;;;;;;5024036;28;20244;-83
2022/03/17 03:00:34;;;;;;;1.63;1.50;;;9.50;99.90;;;;;;5026181;28;20189;-83
2022/03/17 03:03:00;;;;;;;3.70;2.10;;;9.40;99.90;;;;;;5024402;28;20259;-84
2022/03/17 03:05:26;;;;;;;2.33;2.17;;;9.50;99.90;;;;;;5023033;28;20221;-83
2022/03/17 03:07:53;;;;;;;2.73;2.03;;;9.50;99.90;;;;;;5024086;28;20189;-83
2022/03/17 03:10:20;;;;;;;5.13;1.90;;;9.50;99.90;;;;;;5025390;28;20658;-83
2022/03/17 03:12:45;;;;;;;3.50;1.53;;;9.60;99.90;;;;;;5022986;28;20221;-84
2022/03/17 03:15:11;;;;;;;2.13;1.67;;;9.70;99.90;;;;;;5023643;28;20205;-83
2022/03/17 03:17:37;;;;;;;2.47;1.63;;;9.70;99.90;;;;;;5023828;28;20201;-83
2022/03/17 03:20:03;;;;;;;1.83;1.67;;;9.80;99.90;;;;;;5023944;28;20189;-83
2022/03/17 03:22:29;;;;;;;3.37;1.67;;;9.90;99.90;;;;;;5023838;28;20213;-84
2022/03/17 03:24:57;;;;;;;1.43;1.33;;;9.80;99.90;;;;;;5024424;28;20273;-83
2022/03/17 03:27:27;;;;;;;2.60;1.40;;;9.80;99.90;;;;;;5023425;28;20200;-83
2022/03/17 03:29:54;;;;;;;2.40;2.20;;;9.80;99.90;;;;;;5022490;28;20190;-84
2022/03/17 03:32:20;;;;;;;3.87;2.07;;;9.70;99.90;;;;;;5022941;28;20561;-83
2022/03/17 03:34:45;;;;;;;3.37;2.03;;;9.60;99.90;;;;;;5023072;28;20215;-83
2022/03/17 03:37:23;;;;;;;6.63;2.10;;;9.60;99.90;;;;;;5023513;28;20196;-83
2022/03/17 03:39:50;;;;;;;1.50;1.40;;;9.60;99.90;;;;;;5025528;28;20214;-83
2022/03/17 03:42:15;;;;;;;1.67;1.40;;;9.70;99.90;;;;;;5023047;28;20241;-83
2022/03/17 03:44:41;;;;;;;1.97;1.87;;;9.70;99.90;;;;;;5022968;28;20228;-83
2022/03/17 03:47:07;;;;;;;3.80;1.87;;;9.70;99.90;;;;;;5024398;28;20217;-83
2022/03/17 03:49:33;;;;;;;3.07;2.27;;;9.50;99.90;;;;;;5026769;28;20214;-83
2022/03/17 03:51:59;;;;;;;2.37;2.17;;;9.50;99.90;;;;;;5024879;28;20695;-83
2022/03/17 03:54:24;;;;;;;4.37;2.40;;;9.60;99.90;;;;;;5024470;28;20595;-83
2022/03/17 03:56:52;;;;;;;4.47;1.83;;;9.60;99.90;;;;;;5022587;28;20281;-83
2022/03/17 03:59:21;;;;;;;2.10;1.43;;;9.40;99.90;;;;;;5025154;28;20190;-84
2022/03/17 04:01:48;;;;;;;1.90;1.80;;;9.40;99.90;;;;;;5024467;28;20218;-83
2022/03/17 04:04:20;;;;;;;2.23;1.77;;;9.40;99.90;;;;;;5022636;28;20197;-83
2022/03/17 04:06:50;;;;;;;2.57;1.97;;;9.40;99.90;;;;;;5022112;28;20311;-83
2022/03/17 04:09:18;;;;;;;2.67;2.07;;;9.50;99.90;;;;;;5022489;28;21161;-84
2022/03/17 04:11:45;;;;;;;5.17;1.83;;;9.50;99.90;;;;;;5023462;28;20209;-83
2022/03/17 04:14:13;;;;;;;3.93;2.20;;;9.40;99.90;;;;;;5022186;28;20782;-84
2022/03/17 04:16:40;;;;;;;2.87;1.30;;;9.40;99.90;;;;;;5022111;28;20190;-84
2022/03/17 04:19:06;;;;;;;2.83;1.30;;;9.50;99.90;;;;;;5023004;28;20276;-83
2022/03/17 04:21:32;;;;;;;2.47;1.83;;;9.60;99.90;;;;;;5024635;28;20737;-84
2022/03/17 04:23:59;;;;;;;1.47;0.87;;;9.50;99.90;;;;;;5024914;28;20277;-83
2022/03/17 04:26:25;;;;;;;1.37;1.27;;;9.50;99.90;;;;;;5024139;28;20263;-83
2022/03/17 04:28:50;;;;;;;2.13;1.73;;;9.60;99.90;;;;;;5024299;28;20178;-83
2022/03/17 04:31:16;;;;;;;1.77;1.70;;;9.50;99.90;;;;;;5025949;28;20181;-83
2022/03/17 04:33:42;;;;;;;2.13;1.80;;;9.40;99.90;;;;;;5024159;28;20184;-83
2022/03/17 04:36:10;;;;;;;4.13;2.07;;;9.40;99.90;;;;;;5024135;28;20200;-82
2022/03/17 04:38:36;;;;;;;2.27;1.87;;;9.40;99.90;;;;;;5025378;28;20183;-84
2022/03/17 04:41:02;;;;;;;3.90;2.77;;;9.40;99.90;;;;;;5022375;28;20189;-83
2022/03/17 04:43:27;;;;;;;2.97;2.77;;;9.40;99.90;;;;;;5023881;28;20201;-83
2022/03/17 04:45:53;;;;;;;2.10;1.50;;;9.40;99.90;;;;;;5023133;28;20256;-83
2022/03/17 04:48:18;;;;;;;1.90;1.67;;;9.40;99.90;;;;;;5025937;28;20723;-83
2022/03/17 04:50:44;;;;;;;2.97;1.40;;;9.50;99.90;;;;;;5025821;28;20208;-83
2022/03/17 04:53:27;;;;;;;2.97;1.00;;;9.60;99.90;;;;;;5024101;28;20285;-83
2022/03/17 04:55:59;;;;;;;1.60;1.33;;;9.50;99.90;;;;;;5023609;28;20190;-83
2022/03/17 04:58:25;;;;;;;2.40;2.20;;;9.60;99.90;;;;;;5024404;28;20182;-83
2022/03/17 05:00:53;;;;;;;2.47;2.23;;;9.60;99.90;;;;;;5021330;28;20250;-84
2022/03/17 05:03:20;;;;;;;2.43;1.50;;;9.40;99.90;;;;;;5025400;28;20757;-83
2022/03/17 05:05:46;;;;;;;1.50;1.40;;;9.50;99.90;;;;;;5022270;28;20214;-83
2022/03/17 05:08:12;;;;;;;2.17;2.07;;;9.50;99.90;;;;;;5024069;28;20958;-83
2022/03/17 05:10:38;;;;;;;1.47;1.37;;;9.30;99.90;;;;;;5025121;28;20182;-83
2022/03/17 05:13:08;;;;;;;1.67;1.57;;;9.30;99.90;;;;;;5023287;28;20585;-82
2022/03/17 05:15:35;;;;;;;2.23;2.03;;;9.30;99.90;;;;;;5011400;28;21190;-84
2022/03/17 05:18:01;;;;;;;2.60;2.20;;;9.20;99.90;;;;;;5020901;28;20189;-83
2022/03/17 05:20:27;;;;;;;2.87;2.20;;;9.20;99.90;;;;;;5021996;28;20200;-82
2022/03/17 05:22:53;;;;;;;2.00;1.67;;;9.20;99.90;;;;;;5019547;28;20209;-83
2022/03/17 05:25:19;;;;;;;1.27;1.17;;;9.20;99.90;;;;;;5019929;28;20773;-83
2022/03/17 05:27:46;;;;;;;2.03;1.90;;;9.40;99.90;;;;;;5020518;28;20186;-83
2022/03/17 05:30:14;;;;;;;4.10;1.43;;;9.30;99.90;;;;;;5020694;28;20189;-83
2022/03/17 05:32:41;;;;;;;1.33;1.23;;;9.30;99.90;;;;;;5021363;28;20194;-83
2022/03/17 05:35:07;;;;;;;2.20;1.57;;;9.20;99.90;;;;;;5019810;28;20656;-83
2022/03/17 05:37:34;;;;;;;1.60;1.50;;;9.20;99.90;;;;;;5020903;28;20232;-83
2022/03/17 05:40:02;;;;;;;2.70;2.03;;;9.20;99.90;;;;;;5020631;28;20220;-83
2022/03/17 05:42:28;;;;;;;6.00;1.77;;;9.20;99.90;;;;;;5022755;28;20285;-83
2022/03/17 05:44:54;;;;;;;3.23;2.20;;;9.20;99.90;;;;;;5019594;28;20288;-83
2022/03/17 05:47:20;;;;;;;1.93;1.77;;;9.20;99.90;;;;;;5021729;28;20220;-83
2022/03/17 05:49:47;;;;;;;2.53;2.00;;;9.30;99.90;;;;;;5020278;28;20186;-82
2022/03/17 05:52:13;;;;;;;3.67;1.67;;;9.30;99.90;;;;;;5020043;28;20256;-83
2022/03/17 05:54:38;;;;;;;4.47;1.93;;;9.30;99.90;;;;;;5023239;28;20186;-83
2022/03/17 05:57:04;;;;;;;2.03;1.67;;;9.20;99.90;;;;;;5023262;28;20601;-83
2022/03/17 05:59:30;;;;;;;4.27;2.07;;;9.20;99.90;;;;;;5027678;28;20243;-83
2022/03/17 06:01:56;;;;;;;1.87;1.30;;;9.20;99.90;;;;;;5026988;28;20254;-82
2022/03/17 06:04:22;;;;;;;4.00;2.60;;;9.20;99.90;;;;;;5024450;28;20277;-82
2022/03/17 06:06:48;;;;;;;1.17;1.13;;;9.20;99.90;;;;;;5025138;28;20269;-82
2022/03/17 06:09:13;;;;;;;1.40;1.30;;;9.30;99.90;;;;;;5027544;28;20193;-82
2022/03/17 06:11:39;;;;;;;3.17;1.77;;;9.20;99.90;;;;;;5029214;28;20195;-83
2022/03/17 06:14:06;;;;;;;2.97;2.23;;;9.30;99.90;;;;;;5029372;28;20190;-83
2022/03/17 06:16:32;;;;;;;2.33;2.17;;;9.20;99.90;;;;;;5021039;28;20181;-83
2022/03/17 06:18:57;;;;;;;2.80;1.43;;;9.30;99.90;;;;;;5019492;28;20204;-83
2022/03/17 06:21:23;;;;;;;1.50;1.30;;;9.30;99.90;;;;;;5018559;28;20189;-83
2022/03/17 06:23:50;;;;;;;3.40;2.43;;;9.30;99.90;;;;;;5019939;28;20185;-82
2022/03/17 06:26:15;;;;;;;5.30;1.57;;;9.30;99.90;;;;;;5024504;28;20410;-81
2022/03/17 06:28:41;;;;;;;1.90;0.93;;;9.30;99.90;;;;;;5030195;28;20209;-80
2022/03/17 06:31:07;;;;;;;1.87;1.43;;;9.30;99.90;;;;;;5026450;28;20194;-80
2022/03/17 06:33:33;;;;;;;2.97;2.00;;;9.40;99.90;;;;;;5025217;28;20206;-81
2022/03/17 06:35:58;;;;;;;0.80;0.80;;;9.40;99.90;;;;;;5026233;28;20261;-81
2022/03/17 06:38:24;;;;;;;2.03;1.37;;;9.40;99.90;;;;;;5029770;28;20198;-80
2022/03/17 06:40:50;;;;;;;2.27;1.93;;;9.50;99.90;;;;;;5027933;28;20188;-80
2022/03/17 06:43:17;;;;;;;3.73;1.77;;;9.60;99.90;;;;;;5030765;28;20222;-80
2022/03/17 06:45:44;;;;;;;1.43;1.23;;;9.60;99.90;;;;;;5030534;28;20219;-81
2022/03/17 06:48:10;;;;;;;2.03;1.30;;;9.60;99.90;;;;;;5028948;28;20213;-79
2022/03/17 06:50:36;;;;;;;2.73;1.57;;;9.70;99.90;;;;;;5029807;28;20184;-80
2022/03/17 06:53:02;;;;;;;1.60;1.07;;;9.70;99.90;;;;;;5025729;28;20709;-81
2022/03/17 06:55:27;;;;;;;2.10;1.40;;;9.80;99.90;;;;;;5029808;28;20292;-80
2022/03/17 06:57:53;;;;;;;2.50;1.83;;;9.80;99.90;;;;;;5029439;28;20231;-81
2022/03/17 07:00:20;;;;;;;1.90;1.80;;;9.80;99.90;;;;;;5027834;28;20195;-81
2022/03/17 07:02:47;;;;;;;4.20;2.43;;;9.60;99.90;;;;;;5031161;28;20210;-81
2022/03/17 07:05:13;;;;;;;2.97;2.10;;;9.60;99.90;;;;;;5026186;28;20369;-80
2022/03/17 07:07:39;;;;;;;1.77;1.57;;;9.70;99.90;;;;;;5026441;28;20269;-80
2022/03/17 07:10:06;;;;;;;3.27;1.87;;;9.80;99.90;;;;;;5028774;28;20194;-80
2022/03/17 07:12:32;;;;;;;1.37;1.23;;;9.80;99.90;;;;;;5027909;28;20198;-81
2022/03/17 07:14:58;;;;;;;2.13;1.97;;;9.70;99.90;;;;;;5027620;28;20262;-81
2022/03/17 07:17:24;;;;;;;2.40;2.20;;;9.60;99.90;;;;;;5022848;28;20216;-81
2022/03/17 07:22:26;;;;;;;3.07;1.70;;;9.70;99.90;;;;;;5023432;28;20209;-82
2022/03/17 07:24:51;;;;;;;2.93;2.17;;;9.90;99.90;;;;;;5024068;28;20182;-82
2022/03/17 07:27:17;;;;;;;3.30;1.97;;;9.90;99.90;;;;;;5024473;28;20283;-81
2022/03/17 07:29:44;;;;;;;2.60;2.03;;;9.90;99.90;;;;;;5024493;28;20206;-81
2022/03/17 07:32:10;;;;;;;1.13;1.03;;;9.90;99.90;;;;;;5027238;28;20287;-81
2022/03/17 07:34:35;;;;;;;1.03;1.03;;;10.00;99.90;;;;;;5028427;28;20206;-81
2022/03/17 07:37:01;;;;;;;2.20;1.70;;;10.10;99.90;;;;;;5027346;28;20188;-81
2022/03/17 07:39:26;;;;;;;1.40;0.80;;;10.40;99.90;;;;;;5026236;28;20194;-81
2022/03/17 07:41:52;;;;;;;2.80;2.07;;;10.60;99.90;;;;;;5028165;28;20197;-81
2022/03/17 07:44:17;;;;;;;1.37;1.27;;;10.50;99.90;;;;;;5025897;28;20700;-81
2022/03/17 07:46:43;;;;;;;2.83;2.43;;;10.40;99.90;;;;;;5021381;28;20660;-81
2022/03/17 07:49:09;;;;;;;3.10;2.83;;;10.50;99.90;;;;;;5017486;28;20201;-81
2022/03/17 07:51:36;;;;;;;1.80;1.70;;;10.50;99.90;;;;;;5019723;28;20178;-81
2022/03/17 07:54:01;;;;;;;2.67;2.17;;;10.40;99.90;;;;;;5024083;28;20186;-81
2022/03/17 07:56:27;;;;;;;1.73;1.63;;;10.40;99.90;;;;;;5023910;28;20254;-81
2022/03/17 07:58:53;;;;;;;3.03;2.20;;;10.40;99.90;;;;;;5029424;28;20197;-80
2022/03/17 08:01:18;;;;;;;2.27;2.07;;;10.40;99.90;;;;;;5031131;28;20197;-81
2022/03/17 08:03:44;;;;;;;1.53;1.10;;;10.40;99.90;;;;;;5028525;28;20183;-80
2022/03/17 08:06:12;;;;;;;1.90;1.77;;;10.60;99.90;;;;;;5028907;28;20293;-81
2022/03/17 08:08:38;;;;;;;1.03;1.00;;;10.60;99.90;;;;;;5030353;28;20183;-81
2022/03/17 08:11:03;;;;;;;1.60;1.13;;;10.90;99.90;;;;;;5029302;28;20244;-81
2022/03/17 08:13:29;;;;;;;2.57;1.27;;;10.90;99.90;;;;;;5030106;28;20203;-81
2022/03/17 08:15:54;;;;;;;2.60;1.53;;;10.90;99.90;;;;;;5027493;28;20194;-80
2022/03/17 08:18:20;;;;;;;2.07;1.87;;;10.90;99.90;;;;;;5028957;28;20205;-80
2022/03/17 08:20:45;;;;;;;5.37;2.37;;;11.00;99.90;;;;;;5029706;28;20254;-81
2022/03/17 08:23:15;;;;;;;1.87;1.40;;;11.00;99.90;;;;;;5027714;28;20206;-81
2022/03/17 08:25:41;;;;;;;2.33;1.23;;;11.00;99.90;;;;;;5030008;28;20201;-81
2022/03/17 08:28:08;;;;;;;2.30;0.93;;;10.90;99.90;;;;;;5029454;28;20667;-81
2022/03/17 08:30:36;;;;;;;2.97;1.50;;;10.80;99.90;;;;;;5028119;28;20182;-81
2022/03/17 08:33:02;;;;;;;2.20;1.33;;;10.90;99.90;;;;;;5030739;28;20202;-81
2022/03/17 08:35:27;;;;;;;2.73;2.37;;;10.80;99.90;;;;;;5030301;28;20187;-81
2022/03/17 08:37:53;;;;;;;1.50;1.40;;;11.00;99.90;;;;;;5031251;28;20190;-81
2022/03/17 08:40:18;;;;;;;2.13;1.93;;;10.90;99.90;;;;;;5030123;28;20221;-81
2022/03/17 08:42:44;;;;;;;3.00;1.23;;;10.90;99.90;;;;;;5030478;28;20648;-81
2022/03/17 08:50:41;;;;;;;1.37;1.27;;;11.00;99.90;;;;;;5022010;28;20182;-80
2022/03/17 08:53:08;;;;;;;2.23;2.03;;;11.10;99.90;;;;;;5020805;28;20218;-81
2022/03/17 08:55:34;;;;;;;3.70;1.83;;;11.10;99.90;;;;;;5025340;28;20201;-82
2022/03/17 08:58:00;;;;;;;1.60;1.47;;;11.20;99.90;;;;;;5021362;28;20186;-81
2022/03/17 09:00:26;;;;;;;3.53;2.93;;;11.10;99.90;;;;;;5034057;28;20220;-81
2022/03/17 09:02:55;;;;;;;1.47;1.37;;;11.10;99.90;;;;;;5036711;28;20214;-82
2022/03/17 09:05:20;;;;;;;2.60;1.57;;;11.30;99.90;;;;;;5028350;28;20228;-81
2022/03/17 09:07:46;;;;;;;3.07;2.00;;;11.50;99.90;;;;;;5026322;28;20186;-80
2022/03/17 09:10:12;;;;;;;1.40;1.40;;;11.70;99.90;;;;;;5022936;28;20191;-80
2022/03/17 09:12:38;;;;;;;1.60;1.50;;;11.60;99.90;;;;;;5023357;28;20209;-80
2022/03/17 09:15:05;;;;;;;2.47;1.60;;;11.50;99.90;;;;;;5022510;28;20667;-80
2022/03/17 09:17:31;;;;;;;4.07;1.27;;;11.70;99.90;;;;;;5022347;28;20313;-80
2022/03/17 09:19:56;;;;;;;3.07;1.73;;;11.90;99.90;;;;;;5023415;28;20669;-80
2022/03/17 09:22:22;;;;;;;1.40;0.83;;;11.90;99.90;;;;;;5024931;28;21099;-80
2022/03/17 09:24:48;;;;;;;3.03;2.27;;;11.80;99.90;;;;;;5025738;28;20186;-79
2022/03/17 09:27:17;;;;;;;3.03;2.33;;;11.70;99.90;;;;;;5028001;28;20197;-80
2022/03/17 09:29:43;;;;;;;2.60;1.73;;;11.60;99.90;;;;;;5028929;28;20194;-81
2022/03/17 09:32:11;;;;;;;2.97;2.00;;;11.50;99.90;;;;;;5028398;28;20230;-81
2022/03/17 09:34:37;;;;;;;3.40;2.27;;;11.30;99.90;;;;;;5029392;28;20669;-81
2022/03/17 09:37:02;;;;;;;2.20;1.90;;;11.30;99.90;;;;;;5029789;28;20179;-81
2022/03/17 09:42:26;;;;;;;2.23;1.60;;;11.40;99.90;;;;;;5012467;28;20635;-81
2022/03/17 09:44:55;;;;;;;4.03;2.40;;;11.40;99.90;;;;;;5025050;28;20190;-81
2022/03/17 09:47:26;;;;;;;2.23;1.53;;;11.50;99.90;;;;;;5025747;28;20617;-81
2022/03/17 09:49:53;;;;;;;1.77;1.63;;;11.50;99.90;;;;;;5027202;28;20206;-81
2022/03/17 09:52:22;;;;;;;2.90;2.63;;;11.50;99.90;;;;;;5027003;28;20310;-81
2022/03/17 09:54:50;;;;;;;2.63;2.43;;;11.80;99.90;;;;;;5026289;28;20191;-82
2022/03/17 09:57:16;;;;;;;3.57;1.93;;;12.00;99.90;;;;;;5026659;28;20191;-80
2022/03/17 09:59:53;;;;;;;1.33;1.30;;;12.00;99.90;;;;;;5028537;28;20274;-81
2022/03/17 10:02:20;;;;;;;2.30;1.47;;;12.10;99.90;;;;;;5026613;28;20324;-82
2022/03/17 10:04:48;;;;;;;2.13;1.90;;;12.10;99.90;;;;;;5027869;28;20194;-82
2022/03/17 10:07:17;;;;;;;1.77;1.43;;;12.10;99.90;;;;;;5023168;28;20241;-83
2022/03/17 10:09:43;;;;;;;1.53;1.40;;;12.20;99.90;;;;;;5028644;28;20186;-82
2022/03/17 10:12:10;;;;;;;1.87;1.30;;;12.10;99.90;;;;;;5024644;28;20208;-82
2022/03/17 10:14:36;;;;;;;2.17;1.20;;;12.00;99.90;;;;;;5028772;28;20178;-81
2022/03/17 10:17:04;;;;;;;4.13;2.73;;;12.10;99.90;;;;;;5028718;28;20264;-81
2022/03/17 10:19:34;;;;;;;1.60;1.50;;;11.90;99.90;;;;;;5026871;28;20239;-82
2022/03/17 10:22:12;;;;;;;2.67;2.20;;;11.90;99.90;;;;;;5027296;28;20259;-81
2022/03/17 10:24:49;;;;;;;3.40;1.60;;;11.80;99.90;;;;;;5025414;28;20679;-81
2022/03/17 10:27:14;;;;;;;3.23;2.37;;;11.70;99.90;;;;;;5025442;28;20302;-81
2022/03/17 10:29:40;;;;;;;4.00;2.03;;;11.60;99.90;;;;;;5024867;28;20265;-81
2022/03/17 10:32:14;;;;;;;2.40;1.57;;;11.40;99.90;;;;;;5027323;28;20216;-82
2022/03/17 10:34:46;;;;;;;3.27;2.97;;;11.40;99.90;;;;;;5044537;28;20592;-82
2022/03/17 10:37:13;;;;;;;3.70;2.10;;;11.10;99.90;;;;;;5025935;28;20316;-81
2022/03/17 10:40:07;;;;;;;3.50;2.40;;;10.80;99.90;;;;;;5026050;28;20189;-81
2022/03/17 10:42:33;;;;;;;3.20;1.97;;;10.80;99.90;;;;;;5027365;28;20198;-81
2022/03/17 10:45:05;;;;;;;3.13;2.27;;;10.70;99.90;;;;;;5027639;28;20190;-81
2022/03/17 10:47:36;;;;;;;2.07;1.03;;;10.70;99.90;;;;;;5026779;28;21214;-81
2022/03/17 10:50:08;;;;;;;2.47;1.70;;;10.60;99.90;;;;;;5026885;28;20186;-82
2022/03/17 10:52:43;;;;;;;2.20;2.00;;;10.50;99.90;;;;;;5025820;28;20585;-82
2022/03/17 10:55:09;;;;;;;5.10;1.50;;;10.50;99.90;;;;;;5024773;28;20195;-82
2022/03/17 10:57:35;;;;;;;0.87;0.80;;;10.60;99.90;;;;;;5027194;28;20187;-81
2022/03/17 11:00:02;;;;;;;2.77;2.17;;;10.30;99.90;;;;;;5025034;28;20197;-81
2022/03/17 11:02:28;;;;;;;3.20;2.07;;;10.10;99.90;;;;;;5025391;28;20324;-81
2022/03/17 11:04:55;;;;;;;3.43;2.30;;;10.10;99.90;;;;;;5026392;28;20320;-82
2022/03/17 11:07:21;;;;;;;3.67;1.97;;;10.00;99.90;;;;;;5025293;28;20229;-81
2022/03/17 11:09:47;;;;;;;2.80;1.27;;;9.90;99.90;;;;;;5024509;28;20189;-83
2022/03/17 11:12:17;;;;;;;3.47;1.93;;;9.70;99.90;;;;;;5020251;28;20213;-84
2022/03/17 11:14:44;;;;;;;1.60;1.50;;;9.60;99.90;;;;;;5022395;28;20232;-84
2022/03/17 11:17:12;;;;;;;1.67;1.23;;;9.50;99.90;;;;;;5023374;28;20193;-83
2022/03/17 11:19:42;;;;;;;2.10;1.10;;;9.60;99.90;;;;;;5027427;28;20278;-84
2022/03/17 11:22:14;;;;;;;7.57;1.10;;;9.80;99.90;;;;;;5019476;28;20292;-84
2022/03/17 11:24:40;;;;;;;1.70;1.03;;;9.90;99.90;;;;;;5022368;28;20632;-83
2022/03/17 11:27:16;;;;;;;0.63;0.63;;;10.10;99.90;;;;;;5023519;28;20297;-84
2022/03/17 11:29:49;;;;;;;5.73;1.77;;;10.10;99.90;;;;;;5019087;28;20182;-84
2022/03/17 11:32:29;;;;;;;1.00;0.97;;;10.30;99.90;;;;;;5019941;28;20234;-83
2022/03/17 11:35:17;;;;;;;1.70;1.13;;;10.40;99.90;;;;;;5025446;28;20193;-84
2022/03/17 11:37:43;;;;;;;1.90;1.03;;;10.30;99.90;;;;;;5022517;28;20197;-83
2022/03/17 11:40:09;;;;;;;2.60;0.97;;;10.10;99.90;;;;;;5024787;28;20180;-84
2022/03/17 11:42:47;;;;;;;0.83;0.80;;;10.20;99.90;;;;;;5023439;28;20259;-83
2022/03/17 11:45:15;;;;;;;1.90;1.20;;;10.20;99.90;;;;;;5023608;28;20193;-82
2022/03/17 11:47:47;;;;;;;0.67;0.67;;;10.10;99.90;;;;;;5021656;28;20240;-81
2022/03/17 11:50:34;;;;;;;0.93;0.93;;;10.10;99.90;;;;;;5021731;28;20966;-81
2022/03/17 11:53:04;;;;;;;0.57;0.57;;;10.00;99.90;;;;;;5022615;28;20234;-82
2022/03/17 11:55:48;;;;;;;0.87;0.87;;;9.90;99.90;;;;;;5025351;28;20204;-81
2022/03/17 11:58:39;;;;;;;5.47;2.80;;;9.70;99.90;;;;;;5025372;28;20255;-82
2022/03/17 12:01:09;;;;;;;2.40;1.33;;;9.60;99.90;;;;;;5024439;28;20173;-81
2022/03/17 12:03:43;;;;;;;1.10;1.10;;;9.70;99.90;;;;;;5024479;28;20211;-81
2022/03/17 12:06:20;;;;;;;2.90;1.10;;;9.60;99.90;;;;;;5024487;28;20216;-81
2022/03/17 12:08:55;;;;;;;1.03;1.00;;;9.50;99.90;;;;;;5026442;28;20182;-81
2022/03/17 12:11:23;;;;;;;0.83;0.83;;;9.60;99.90;;;;;;5022360;28;20185;-83
2022/03/17 12:14:07;;;;;;;2.93;1.27;;;9.50;99.90;;;;;;5022650;28;20187;-83
2022/03/17 12:16:40;;;;;;;0.77;0.77;;;9.70;99.90;;;;;;5024930;28;20261;-82
2022/03/17 12:19:06;;;;;;;0.40;0.40;;;9.60;99.90;;;;;;5027498;28;20205;-82
2022/03/17 12:21:57;;;;;;;0.83;0.83;;;9.60;99.90;;;;;;5023448;28;20198;-82
2022/03/17 12:24:47;;;;;;;3.40;1.20;;;9.40;99.90;;;;;;5023939;28;20193;-82
2022/03/17 12:27:20;;;;;;;0.63;0.63;;;9.40;99.90;;;;;;5026435;28;20224;-82
2022/03/17 12:29:49;;;;;;;1.10;1.00;;;9.50;99.90;;;;;;5042117;28;20189;-82
2022/03/17 12:32:18;;;;;;;0.73;0.73;;;9.70;99.90;;;;;;5029219;28;20206;-82
2022/03/17 12:34:49;;;;;;;1.00;0.63;;;9.90;99.90;;;;;;5023184;28;20186;-83
2022/03/17 12:37:16;;;;;;;0.60;0.60;;;10.00;99.90;;;;;;5022500;28;20192;-82
2022/03/17 12:39:42;;;;;;;0.90;0.87;;;10.10;99.90;;;;;;5029552;28;20562;-81
2022/03/17 12:42:19;;;;;;;1.03;1.03;;;10.10;99.90;;;;;;5024209;28;20225;-81
2022/03/17 12:45:15;;;;;;;0.50;0.50;;;10.10;99.90;;;;;;5022469;28;20193;-81
2022/03/17 12:47:43;;;;;;;2.90;0.60;;;10.10;99.90;;;;;;5023619;28;20292;-81
2022/03/17 12:50:18;;;;;;;0.50;0.50;;;9.80;99.90;;;;;;5024292;28;20199;-82
2022/03/17 12:52:46;;;;;;;1.13;1.03;;;9.80;99.90;;;;;;5023922;28;20573;-81
2022/03/17 12:55:14;;;;;;;1.53;0.43;;;9.90;99.90;;;;;;5021607;28;20194;-81
2022/03/17 12:57:41;;;;;;;0.40;0.40;;;10.10;99.90;;;;;;5021929;28;20655;-81
2022/03/17 13:00:12;;;;;;;0.70;0.70;;;10.40;99.90;;;;;;5019626;28;20208;-81
2022/03/17 13:02:54;;;;;;;0.40;0.40;;;10.50;99.90;;;;;;5023051;28;20221;-81
2022/03/17 13:08:06;;;;;;;0.60;0.60;;;10.50;99.90;;;;;;5028057;28;20189;-81
2022/03/17 13:16:18;;;;;;;0.60;0.60;;;10.70;99.90;;;;;;5025211;28;20190;-81
2022/03/17 13:18:51;;;;;;;0.40;0.40;;;10.40;99.90;;;;;;5024873;28;20197;-81
2022/03/17 13:21:19;;;;;;;0.80;0.80;;;10.20;99.90;;;;;;5024746;28;20190;-81
2022/03/17 13:23:45;;;;;;;0.40;0.40;;;10.50;99.90;;;;;;5027567;28;20186;-81